sensor_id;sensor_type;location;lat;lon;timestamp;temperature;humidity
30280;DHT22;17097;50.916;5.344;2023-08-30T00:02:11;15.90;99.90
30280;DHT22;17097;50.916;5.344;2023-08-30T00:04:36;16.00;99.90
30280;DHT22;17097;50.916;5.344;2023-08-30T00:07:02;16.00;99.90
30280;DHT22;17097;50.916;5.344;2023-08-30T00:09:28;15.90;99.90
30280;DHT22;17097;50.916;5.344;2023-08-30T00:11:53;15.80;99.90
30280;DHT22;17097;50.916;5.344;2023-08-30T00:14:19;15.70;99.90
30280;DHT22;17097;50.916;5.344;2023-08-30T00:16:44;15.80;99.90
30280;DHT22;17097;50.916;5.344;2023-08-30T00:19:10;15.80;99.90
30280;DHT22;17097;50.916;5.344;2023-08-30T00:21:36;15.80;99.90
30280;DHT22;17097;50.916;5.344;2023-08-30T00:24:01;15.70;99.90
30280;DHT22;17097;50.916;5.344;2023-08-30T00:26:29;15.60;99.90
30280;DHT22;17097;50.916;5.344;2023-08-30T00:28:57;15.50;99.90
30280;DHT22;17097;50.916;5.344;2023-08-30T00:31:23;15.50;99.90
30280;DHT22;17097;50.916;5.344;2023-08-30T00:33:49;15.60;99.90
30280;DHT22;17097;50.916;5.344;2023-08-30T00:36:14;15.80;99.90
30280;DHT22;17097;50.916;5.344;2023-08-30T00:38:42;15.90;99.90
30280;DHT22;17097;50.916;5.344;2023-08-30T00:41:10;15.80;99.90
30280;DHT22;17097;50.916;5.344;2023-08-30T00:43:36;15.90;99.90
30280;DHT22;17097;50.916;5.344;2023-08-30T00:46:02;15.80;99.90
30280;DHT22;17097;50.916;5.344;2023-08-30T00:48:28;15.70;99.90
30280;DHT22;17097;50.916;5.344;2023-08-30T00:50:53;15.60;99.90
30280;DHT22;17097;50.916;5.344;2023-08-30T00:53:19;15.70;99.90
30280;DHT22;17097;50.916;5.344;2023-08-30T00:55:45;15.60;99.90
30280;DHT22;17097;50.916;5.344;2023-08-30T00:58:11;15.50;99.90
30280;DHT22;17097;50.916;5.344;2023-08-30T01:00:37;15.40;99.90
30280;DHT22;17097;50.916;5.344;2023-08-30T01:03:03;15.30;99.90
30280;DHT22;17097;50.916;5.344;2023-08-30T01:05:30;15.40;99.90
30280;DHT22;17097;50.916;5.344;2023-08-30T01:07:55;15.40;99.90
30280;DHT22;17097;50.916;5.344;2023-08-30T01:10:33;15.40;99.90
30280;DHT22;17097;50.916;5.344;2023-08-30T01:13:07;15.50;99.90
30280;DHT22;17097;50.916;5.344;2023-08-30T01:15:34;15.50;99.90
30280;DHT22;17097;50.916;5.344;2023-08-30T01:18:02;15.60;99.90
30280;DHT22;17097;50.916;5.344;2023-08-30T01:20:30;15.60;99.90
30280;DHT22;17097;50.916;5.344;2023-08-30T01:23:06;15.80;99.90
30280;DHT22;17097;50.916;5.344;2023-08-30T01:28:26;15.90;99.90
30280;DHT22;17097;50.916;5.344;2023-08-30T01:30:57;15.90;99.90
30280;DHT22;17097;50.916;5.344;2023-08-30T01:33:24;15.80;99.90
30280;DHT22;17097;50.916;5.344;2023-08-30T01:35:56;15.80;99.90
30280;DHT22;17097;50.916;5.344;2023-08-30T01:38:27;15.80;99.90
30280;DHT22;17097;50.916;5.344;2023-08-30T01:40:55;15.80;99.90
30280;DHT22;17097;50.916;5.344;2023-08-30T01:43:22;15.80;99.90
30280;DHT22;17097;50.916;5.344;2023-08-30T01:45:48;15.70;99.90
30280;DHT22;17097;50.916;5.344;2023-08-30T01:48:15;15.70;99.90
30280;DHT22;17097;50.916;5.344;2023-08-30T01:50:43;15.70;99.90
30280;DHT22;17097;50.916;5.344;2023-08-30T01:53:11;15.80;99.90
30280;DHT22;17097;50.916;5.344;2023-08-30T01:55:37;15.80;99.90
30280;DHT22;17097;50.916;5.344;2023-08-30T01:58:06;15.90;99.90
30280;DHT22;17097;50.916;5.344;2023-08-30T02:00:31;15.90;99.90
30280;DHT22;17097;50.916;5.344;2023-08-30T02:02:59;15.90;99.90
30280;DHT22;17097;50.916;5.344;2023-08-30T02:05:25;16.00;99.90
30280;DHT22;17097;50.916;5.344;2023-08-30T02:08:09;16.00;99.90
30280;DHT22;17097;50.916;5.344;2023-08-30T02:10:41;16.10;99.90
30280;DHT22;17097;50.916;5.344;2023-08-30T02:13:11;16.10;99.90
30280;DHT22;17097;50.916;5.344;2023-08-30T02:15:41;16.10;99.90
30280;DHT22;17097;50.916;5.344;2023-08-30T02:18:08;16.10;99.90
30280;DHT22;17097;50.916;5.344;2023-08-30T02:20:35;16.10;99.90
30280;DHT22;17097;50.916;5.344;2023-08-30T02:23:00;16.00;99.90
30280;DHT22;17097;50.916;5.344;2023-08-30T02:25:28;16.10;99.90
30280;DHT22;17097;50.916;5.344;2023-08-30T02:27:54;16.00;99.90
30280;DHT22;17097;50.916;5.344;2023-08-30T02:30:19;16.00;99.90
30280;DHT22;17097;50.916;5.344;2023-08-30T02:32:45;16.10;99.90
30280;DHT22;17097;50.916;5.344;2023-08-30T02:35:11;16.10;99.90
30280;DHT22;17097;50.916;5.344;2023-08-30T02:37:41;16.10;99.90
30280;DHT22;17097;50.916;5.344;2023-08-30T02:40:09;16.20;99.90
30280;DHT22;17097;50.916;5.344;2023-08-30T02:42:34;16.10;99.90
30280;DHT22;17097;50.916;5.344;2023-08-30T02:45:00;16.10;99.90
30280;DHT22;17097;50.916;5.344;2023-08-30T02:47:25;16.10;99.90
30280;DHT22;17097;50.916;5.344;2023-08-30T02:49:51;16.20;99.90
30280;DHT22;17097;50.916;5.344;2023-08-30T02:52:17;16.20;99.90
30280;DHT22;17097;50.916;5.344;2023-08-30T02:54:43;16.30;99.90
30280;DHT22;17097;50.916;5.344;2023-08-30T02:57:11;16.30;99.90
30280;DHT22;17097;50.916;5.344;2023-08-30T02:59:36;16.30;99.90
30280;DHT22;17097;50.916;5.344;2023-08-30T03:02:02;16.30;99.90
30280;DHT22;17097;50.916;5.344;2023-08-30T03:04:28;16.30;99.90
30280;DHT22;17097;50.916;5.344;2023-08-30T03:06:53;16.30;99.90
30280;DHT22;17097;50.916;5.344;2023-08-30T03:09:21;16.40;99.90
30280;DHT22;17097;50.916;5.344;2023-08-30T03:11:47;16.30;99.90
30280;DHT22;17097;50.916;5.344;2023-08-30T03:14:12;16.40;99.90
30280;DHT22;17097;50.916;5.344;2023-08-30T03:16:39;16.40;99.90
30280;DHT22;17097;50.916;5.344;2023-08-30T03:19:05;16.50;99.90
30280;DHT22;17097;50.916;5.344;2023-08-30T03:21:34;16.50;99.90
30280;DHT22;17097;50.916;5.344;2023-08-30T03:24:00;16.60;99.90
30280;DHT22;17097;50.916;5.344;2023-08-30T03:26:26;16.60;99.90
30280;DHT22;17097;50.916;5.344;2023-08-30T03:28:53;16.60;99.90
30280;DHT22;17097;50.916;5.344;2023-08-30T03:31:20;16.50;99.90
30280;DHT22;17097;50.916;5.344;2023-08-30T03:33:47;16.50;99.90
30280;DHT22;17097;50.916;5.344;2023-08-30T03:36:15;16.50;99.90
30280;DHT22;17097;50.916;5.344;2023-08-30T03:38:43;16.60;99.90
30280;DHT22;17097;50.916;5.344;2023-08-30T03:41:10;16.60;99.90
30280;DHT22;17097;50.916;5.344;2023-08-30T03:43:36;16.70;99.90
30280;DHT22;17097;50.916;5.344;2023-08-30T03:46:02;16.60;99.90
30280;DHT22;17097;50.916;5.344;2023-08-30T03:48:33;16.60;99.90
30280;DHT22;17097;50.916;5.344;2023-08-30T03:50:58;16.50;99.90
30280;DHT22;17097;50.916;5.344;2023-08-30T03:53:24;16.50;99.90
30280;DHT22;17097;50.916;5.344;2023-08-30T03:55:51;16.40;99.90
30280;DHT22;17097;50.916;5.344;2023-08-30T03:58:18;16.40;99.90
30280;DHT22;17097;50.916;5.344;2023-08-30T04:00:43;16.30;99.90
30280;DHT22;17097;50.916;5.344;2023-08-30T04:03:15;16.30;99.90
30280;DHT22;17097;50.916;5.344;2023-08-30T04:05:41;16.40;99.90
30280;DHT22;17097;50.916;5.344;2023-08-30T04:08:07;16.30;99.90
30280;DHT22;17097;50.916;5.344;2023-08-30T04:10:40;16.40;99.90
30280;DHT22;17097;50.916;5.344;2023-08-30T04:13:07;16.50;99.90
30280;DHT22;17097;50.916;5.344;2023-08-30T04:15:34;16.40;99.90
30280;DHT22;17097;50.916;5.344;2023-08-30T04:18:04;16.50;99.90
30280;DHT22;17097;50.916;5.344;2023-08-30T04:20:31;16.40;99.90
30280;DHT22;17097;50.916;5.344;2023-08-30T04:22:58;16.40;99.90
30280;DHT22;17097;50.916;5.344;2023-08-30T04:25:27;16.40;99.90
30280;DHT22;17097;50.916;5.344;2023-08-30T04:27:53;16.40;99.90
30280;DHT22;17097;50.916;5.344;2023-08-30T04:30:18;16.40;99.90
30280;DHT22;17097;50.916;5.344;2023-08-30T04:32:44;16.40;99.90
30280;DHT22;17097;50.916;5.344;2023-08-30T04:35:10;16.30;99.90
30280;DHT22;17097;50.916;5.344;2023-08-30T04:37:36;16.50;99.90
30280;DHT22;17097;50.916;5.344;2023-08-30T04:40:04;16.60;99.90
30280;DHT22;17097;50.916;5.344;2023-08-30T04:42:29;16.80;99.90
30280;DHT22;17097;50.916;5.344;2023-08-30T04:44:55;16.70;99.90
30280;DHT22;17097;50.916;5.344;2023-08-30T04:47:24;16.60;99.90
30280;DHT22;17097;50.916;5.344;2023-08-30T04:49:52;16.60;99.90
30280;DHT22;17097;50.916;5.344;2023-08-30T04:52:18;16.40;99.90
30280;DHT22;17097;50.916;5.344;2023-08-30T04:54:43;16.40;99.90
30280;DHT22;17097;50.916;5.344;2023-08-30T04:57:11;16.50;99.90
30280;DHT22;17097;50.916;5.344;2023-08-30T04:59:40;16.50;99.90
30280;DHT22;17097;50.916;5.344;2023-08-30T05:02:06;16.60;99.90
30280;DHT22;17097;50.916;5.344;2023-08-30T05:04:34;16.40;99.90
30280;DHT22;17097;50.916;5.344;2023-08-30T05:06:59;16.40;99.90
30280;DHT22;17097;50.916;5.344;2023-08-30T05:09:25;16.40;99.90
30280;DHT22;17097;50.916;5.344;2023-08-30T05:11:51;16.50;99.90
30280;DHT22;17097;50.916;5.344;2023-08-30T05:14:17;16.50;99.90
30280;DHT22;17097;50.916;5.344;2023-08-30T05:16:42;16.40;99.90
30280;DHT22;17097;50.916;5.344;2023-08-30T05:19:08;16.40;99.90
30280;DHT22;17097;50.916;5.344;2023-08-30T05:21:34;16.30;99.90
30280;DHT22;17097;50.916;5.344;2023-08-30T05:24:03;16.20;99.90
30280;DHT22;17097;50.916;5.344;2023-08-30T05:26:28;16.20;99.90
30280;DHT22;17097;50.916;5.344;2023-08-30T05:28:58;16.20;99.90
30280;DHT22;17097;50.916;5.344;2023-08-30T05:31:26;16.30;99.90
30280;DHT22;17097;50.916;5.344;2023-08-30T05:33:54;16.30;99.90
30280;DHT22;17097;50.916;5.344;2023-08-30T05:36:20;16.20;99.90
30280;DHT22;17097;50.916;5.344;2023-08-30T05:38:45;16.30;99.90
30280;DHT22;17097;50.916;5.344;2023-08-30T05:41:11;16.30;99.90
30280;DHT22;17097;50.916;5.344;2023-08-30T05:43:37;16.30;99.90
30280;DHT22;17097;50.916;5.344;2023-08-30T05:46:03;16.40;99.90
30280;DHT22;17097;50.916;5.344;2023-08-30T05:48:29;16.40;99.90
30280;DHT22;17097;50.916;5.344;2023-08-30T05:50:55;16.50;99.90
30280;DHT22;17097;50.916;5.344;2023-08-30T05:53:22;16.50;99.90
30280;DHT22;17097;50.916;5.344;2023-08-30T05:55:47;16.50;99.90
30280;DHT22;17097;50.916;5.344;2023-08-30T05:58:15;16.60;99.90
30280;DHT22;17097;50.916;5.344;2023-08-30T06:00:42;16.80;99.90
30280;DHT22;17097;50.916;5.344;2023-08-30T06:03:08;16.70;99.90
30280;DHT22;17097;50.916;5.344;2023-08-30T06:05:34;16.60;99.90
30280;DHT22;17097;50.916;5.344;2023-08-30T06:08:00;16.50;99.90
30280;DHT22;17097;50.916;5.344;2023-08-30T06:10:27;16.50;99.90
30280;DHT22;17097;50.916;5.344;2023-08-30T06:12:53;16.60;99.90
30280;DHT22;17097;50.916;5.344;2023-08-30T06:15:19;16.70;99.90
30280;DHT22;17097;50.916;5.344;2023-08-30T06:17:45;16.80;99.90
30280;DHT22;17097;50.916;5.344;2023-08-30T06:20:12;16.80;99.90
30280;DHT22;17097;50.916;5.344;2023-08-30T06:22:40;16.80;99.90
30280;DHT22;17097;50.916;5.344;2023-08-30T06:25:09;16.80;99.90
30280;DHT22;17097;50.916;5.344;2023-08-30T06:27:41;16.80;99.90
30280;DHT22;17097;50.916;5.344;2023-08-30T06:30:08;16.60;99.90
30280;DHT22;17097;50.916;5.344;2023-08-30T06:32:34;16.60;99.90
30280;DHT22;17097;50.916;5.344;2023-08-30T06:35:00;16.60;99.90
30280;DHT22;17097;50.916;5.344;2023-08-30T06:37:25;16.50;99.90
30280;DHT22;17097;50.916;5.344;2023-08-30T06:39:51;16.60;99.90
30280;DHT22;17097;50.916;5.344;2023-08-30T06:42:17;16.60;99.90
30280;DHT22;17097;50.916;5.344;2023-08-30T06:44:43;16.40;99.90
30280;DHT22;17097;50.916;5.344;2023-08-30T06:47:09;16.50;99.90
30280;DHT22;17097;50.916;5.344;2023-08-30T06:49:37;16.60;99.90
30280;DHT22;17097;50.916;5.344;2023-08-30T06:52:05;16.50;99.90
30280;DHT22;17097;50.916;5.344;2023-08-30T06:54:33;16.50;99.90
30280;DHT22;17097;50.916;5.344;2023-08-30T06:57:00;16.50;99.90
30280;DHT22;17097;50.916;5.344;2023-08-30T06:59:30;16.50;99.90
30280;DHT22;17097;50.916;5.344;2023-08-30T07:01:56;16.60;99.90
30280;DHT22;17097;50.916;5.344;2023-08-30T07:04:22;16.60;99.90
30280;DHT22;17097;50.916;5.344;2023-08-30T07:06:48;16.80;99.90
30280;DHT22;17097;50.916;5.344;2023-08-30T07:09:16;17.00;99.90
30280;DHT22;17097;50.916;5.344;2023-08-30T07:11:45;16.90;99.90
30280;DHT22;17097;50.916;5.344;2023-08-30T07:14:11;16.70;99.90
30280;DHT22;17097;50.916;5.344;2023-08-30T07:16:43;16.80;99.90
30280;DHT22;17097;50.916;5.344;2023-08-30T07:19:08;16.80;99.90
30280;DHT22;17097;50.916;5.344;2023-08-30T07:21:35;16.90;99.90
30280;DHT22;17097;50.916;5.344;2023-08-30T07:24:04;16.80;99.90
30280;DHT22;17097;50.916;5.344;2023-08-30T07:26:30;16.80;99.90
30280;DHT22;17097;50.916;5.344;2023-08-30T07:28:57;16.70;99.90
30280;DHT22;17097;50.916;5.344;2023-08-30T07:31:23;16.70;99.90
30280;DHT22;17097;50.916;5.344;2023-08-30T07:33:49;16.80;99.90
30280;DHT22;17097;50.916;5.344;2023-08-30T07:36:16;16.70;99.90
30280;DHT22;17097;50.916;5.344;2023-08-30T07:38:42;16.60;99.90
30280;DHT22;17097;50.916;5.344;2023-08-30T07:41:10;16.60;99.90
30280;DHT22;17097;50.916;5.344;2023-08-30T07:43:36;16.70;99.90
30280;DHT22;17097;50.916;5.344;2023-08-30T07:46:01;16.70;99.90
30280;DHT22;17097;50.916;5.344;2023-08-30T07:48:27;16.90;99.90
30280;DHT22;17097;50.916;5.344;2023-08-30T07:50:55;16.90;99.90
30280;DHT22;17097;50.916;5.344;2023-08-30T07:53:20;16.90;99.90
30280;DHT22;17097;50.916;5.344;2023-08-30T07:55:50;17.10;99.90
30280;DHT22;17097;50.916;5.344;2023-08-30T07:58:19;17.10;99.90
30280;DHT22;17097;50.916;5.344;2023-08-30T08:00:44;17.10;99.90
30280;DHT22;17097;50.916;5.344;2023-08-30T08:03:10;17.30;99.90
30280;DHT22;17097;50.916;5.344;2023-08-30T08:05:36;17.50;99.90
30280;DHT22;17097;50.916;5.344;2023-08-30T08:08:03;17.40;99.90
30280;DHT22;17097;50.916;5.344;2023-08-30T08:10:33;17.30;99.90
30280;DHT22;17097;50.916;5.344;2023-08-30T08:13:04;17.40;99.90
30280;DHT22;17097;50.916;5.344;2023-08-30T08:15:29;17.40;99.90
30280;DHT22;17097;50.916;5.344;2023-08-30T08:17:57;17.40;99.90
30280;DHT22;17097;50.916;5.344;2023-08-30T08:20:22;17.40;99.90
30280;DHT22;17097;50.916;5.344;2023-08-30T08:22:48;17.50;99.90
30280;DHT22;17097;50.916;5.344;2023-08-30T08:25:13;17.50;99.90
30280;DHT22;17097;50.916;5.344;2023-08-30T08:27:39;17.40;99.90
30280;DHT22;17097;50.916;5.344;2023-08-30T08:30:06;17.20;99.90
30280;DHT22;17097;50.916;5.344;2023-08-30T08:32:35;17.10;99.90
30280;DHT22;17097;50.916;5.344;2023-08-30T08:35:00;17.10;99.90
30280;DHT22;17097;50.916;5.344;2023-08-30T08:37:26;17.10;99.90
30280;DHT22;17097;50.916;5.344;2023-08-30T08:39:52;17.10;99.90
30280;DHT22;17097;50.916;5.344;2023-08-30T08:42:19;17.10;99.90
30280;DHT22;17097;50.916;5.344;2023-08-30T08:44:47;17.00;99.90
30280;DHT22;17097;50.916;5.344;2023-08-30T08:47:21;17.00;99.90
30280;DHT22;17097;50.916;5.344;2023-08-30T08:49:51;17.00;99.90
30280;DHT22;17097;50.916;5.344;2023-08-30T08:52:21;17.00;99.90
30280;DHT22;17097;50.916;5.344;2023-08-30T08:54:50;17.00;99.90
30280;DHT22;17097;50.916;5.344;2023-08-30T08:57:21;17.00;99.90
30280;DHT22;17097;50.916;5.344;2023-08-30T08:59:47;16.90;99.90
30280;DHT22;17097;50.916;5.344;2023-08-30T09:02:19;16.80;99.90
30280;DHT22;17097;50.916;5.344;2023-08-30T09:04:45;16.90;99.90
30280;DHT22;17097;50.916;5.344;2023-08-30T09:07:11;17.00;99.90
30280;DHT22;17097;50.916;5.344;2023-08-30T09:09:36;17.10;99.90
30280;DHT22;17097;50.916;5.344;2023-08-30T09:12:02;16.80;99.90
30280;DHT22;17097;50.916;5.344;2023-08-30T09:14:28;16.90;99.90
30280;DHT22;17097;50.916;5.344;2023-08-30T09:19:23;16.70;99.90
30280;DHT22;17097;50.916;5.344;2023-08-30T09:21:57;16.70;99.90
30280;DHT22;17097;50.916;5.344;2023-08-30T09:24:23;16.80;99.90
30280;DHT22;17097;50.916;5.344;2023-08-30T09:26:54;16.80;99.90
30280;DHT22;17097;50.916;5.344;2023-08-30T09:29:22;16.80;99.90
30280;DHT22;17097;50.916;5.344;2023-08-30T09:31:51;16.80;99.90
30280;DHT22;17097;50.916;5.344;2023-08-30T09:34:24;17.00;99.90
30280;DHT22;17097;50.916;5.344;2023-08-30T09:36:53;16.90;99.90
30280;DHT22;17097;50.916;5.344;2023-08-30T09:39:19;16.80;99.90
30280;DHT22;17097;50.916;5.344;2023-08-30T09:41:53;16.90;99.90
30280;DHT22;17097;50.916;5.344;2023-08-30T09:44:20;16.70;99.90
30280;DHT22;17097;50.916;5.344;2023-08-30T09:46:54;16.80;99.90
30280;DHT22;17097;50.916;5.344;2023-08-30T09:49:24;16.90;99.90
30280;DHT22;17097;50.916;5.344;2023-08-30T09:51:51;17.00;99.90
30280;DHT22;17097;50.916;5.344;2023-08-30T09:54:22;17.00;99.90
30280;DHT22;17097;50.916;5.344;2023-08-30T09:56:49;17.10;99.90
30280;DHT22;17097;50.916;5.344;2023-08-30T09:59:18;16.90;99.90
30280;DHT22;17097;50.916;5.344;2023-08-30T10:01:46;17.10;99.90
30280;DHT22;17097;50.916;5.344;2023-08-30T10:04:12;17.30;99.90
30280;DHT22;17097;50.916;5.344;2023-08-30T10:06:38;17.20;99.90
30280;DHT22;17097;50.916;5.344;2023-08-30T10:09:06;17.10;99.90
30280;DHT22;17097;50.916;5.344;2023-08-30T10:11:37;17.20;99.90
30280;DHT22;17097;50.916;5.344;2023-08-30T10:14:04;17.20;99.90
30280;DHT22;17097;50.916;5.344;2023-08-30T10:16:36;17.40;99.90
30280;DHT22;17097;50.916;5.344;2023-08-30T10:19:09;17.30;99.90
30280;DHT22;17097;50.916;5.344;2023-08-30T10:21:36;17.20;99.90
30280;DHT22;17097;50.916;5.344;2023-08-30T10:24:05;17.20;99.90
30280;DHT22;17097;50.916;5.344;2023-08-30T10:26:31;17.30;99.90
30280;DHT22;17097;50.916;5.344;2023-08-30T10:28:58;17.40;99.90
30280;DHT22;17097;50.916;5.344;2023-08-30T10:31:27;17.40;99.90
30280;DHT22;17097;50.916;5.344;2023-08-30T10:33:54;17.40;99.90
30280;DHT22;17097;50.916;5.344;2023-08-30T10:36:23;17.40;99.90
30280;DHT22;17097;50.916;5.344;2023-08-30T10:38:55;17.30;99.90
30280;DHT22;17097;50.916;5.344;2023-08-30T10:41:30;17.40;99.90
30280;DHT22;17097;50.916;5.344;2023-08-30T10:43:56;17.30;99.90
30280;DHT22;17097;50.916;5.344;2023-08-30T10:46:31;17.30;99.90
30280;DHT22;17097;50.916;5.344;2023-08-30T10:49:14;17.30;99.90
30280;DHT22;17097;50.916;5.344;2023-08-30T10:51:41;17.40;99.90
30280;DHT22;17097;50.916;5.344;2023-08-30T10:54:18;17.30;99.90
30280;DHT22;17097;50.916;5.344;2023-08-30T10:56:57;17.30;99.90
30280;DHT22;17097;50.916;5.344;2023-08-30T10:59:27;17.40;99.90
30280;DHT22;17097;50.916;5.344;2023-08-30T11:01:54;17.50;99.90
30280;DHT22;17097;50.916;5.344;2023-08-30T11:04:21;17.50;99.90
30280;DHT22;17097;50.916;5.344;2023-08-30T11:06:50;17.50;99.90
30280;DHT22;17097;50.916;5.344;2023-08-30T11:09:17;17.60;99.90
30280;DHT22;17097;50.916;5.344;2023-08-30T11:11:44;17.70;99.90
30280;DHT22;17097;50.916;5.344;2023-08-30T11:14:11;17.80;99.90
30280;DHT22;17097;50.916;5.344;2023-08-30T11:16:38;17.90;99.90
30280;DHT22;17097;50.916;5.344;2023-08-30T11:19:04;17.90;99.90
30280;DHT22;17097;50.916;5.344;2023-08-30T11:21:32;17.90;99.90
30280;DHT22;17097;50.916;5.344;2023-08-30T11:24:01;17.80;99.90
30280;DHT22;17097;50.916;5.344;2023-08-30T11:26:30;17.80;99.90
30280;DHT22;17097;50.916;5.344;2023-08-30T11:28:56;18.00;99.90
30280;DHT22;17097;50.916;5.344;2023-08-30T11:31:23;18.00;99.90
30280;DHT22;17097;50.916;5.344;2023-08-30T11:33:56;18.20;99.90
30280;DHT22;17097;50.916;5.344;2023-08-30T11:36:26;18.20;99.90
30280;DHT22;17097;50.916;5.344;2023-08-30T11:38:53;18.20;99.90
30280;DHT22;17097;50.916;5.344;2023-08-30T11:41:25;18.30;99.90
30280;DHT22;17097;50.916;5.344;2023-08-30T11:43:51;18.30;99.90
30280;DHT22;17097;50.916;5.344;2023-08-30T11:46:20;18.40;99.90
30280;DHT22;17097;50.916;5.344;2023-08-30T11:48:48;18.50;99.90
30280;DHT22;17097;50.916;5.344;2023-08-30T11:51:15;18.50;99.90
30280;DHT22;17097;50.916;5.344;2023-08-30T11:53:41;18.60;99.90
30280;DHT22;17097;50.916;5.344;2023-08-30T11:56:08;18.50;99.90
30280;DHT22;17097;50.916;5.344;2023-08-30T11:58:37;18.40;99.90
30280;DHT22;17097;50.916;5.344;2023-08-30T12:01:07;18.60;99.90
30280;DHT22;17097;50.916;5.344;2023-08-30T12:03:33;18.70;99.90
30280;DHT22;17097;50.916;5.344;2023-08-30T12:05:59;18.80;99.90
30280;DHT22;17097;50.916;5.344;2023-08-30T12:08:33;18.90;99.90
30280;DHT22;17097;50.916;5.344;2023-08-30T12:10:59;19.00;99.90
30280;DHT22;17097;50.916;5.344;2023-08-30T12:13:29;19.00;99.90
30280;DHT22;17097;50.916;5.344;2023-08-30T12:15:56;19.00;99.90
30280;DHT22;17097;50.916;5.344;2023-08-30T12:18:31;19.00;99.90
30280;DHT22;17097;50.916;5.344;2023-08-30T12:21:04;18.80;99.90
30280;DHT22;17097;50.916;5.344;2023-08-30T12:23:31;18.80;99.90
30280;DHT22;17097;50.916;5.344;2023-08-30T12:28:33;18.90;99.90
30280;DHT22;17097;50.916;5.344;2023-08-30T12:30:59;19.00;99.90
30280;DHT22;17097;50.916;5.344;2023-08-30T12:33:28;19.00;99.90
30280;DHT22;17097;50.916;5.344;2023-08-30T12:35:54;18.90;99.90
30280;DHT22;17097;50.916;5.344;2023-08-30T12:38:21;18.90;99.90
30280;DHT22;17097;50.916;5.344;2023-08-30T12:40:48;18.80;99.90
30280;DHT22;17097;50.916;5.344;2023-08-30T12:43:15;18.70;99.90
30280;DHT22;17097;50.916;5.344;2023-08-30T12:45:42;18.80;99.90
30280;DHT22;17097;50.916;5.344;2023-08-30T12:48:10;18.90;99.90
30280;DHT22;17097;50.916;5.344;2023-08-30T12:50:37;19.00;99.90
30280;DHT22;17097;50.916;5.344;2023-08-30T12:53:04;19.20;99.90
30280;DHT22;17097;50.916;5.344;2023-08-30T12:55:32;19.10;99.90
30280;DHT22;17097;50.916;5.344;2023-08-30T12:57:58;19.00;99.90
30280;DHT22;17097;50.916;5.344;2023-08-30T13:00:24;19.10;99.90
30280;DHT22;17097;50.916;5.344;2023-08-30T13:02:50;19.30;99.90
30280;DHT22;17097;50.916;5.344;2023-08-30T13:05:16;19.20;99.90
30280;DHT22;17097;50.916;5.344;2023-08-30T13:07:42;19.40;99.90
30280;DHT22;17097;50.916;5.344;2023-08-30T13:10:08;19.40;99.90
30280;DHT22;17097;50.916;5.344;2023-08-30T13:12:34;19.40;99.90
30280;DHT22;17097;50.916;5.344;2023-08-30T13:15:00;19.40;99.90
30280;DHT22;17097;50.916;5.344;2023-08-30T13:17:26;19.50;99.90
30280;DHT22;17097;50.916;5.344;2023-08-30T13:19:52;19.50;99.90
30280;DHT22;17097;50.916;5.344;2023-08-30T13:22:17;19.60;99.90
30280;DHT22;17097;50.916;5.344;2023-08-30T13:24:45;19.70;99.90
30280;DHT22;17097;50.916;5.344;2023-08-30T13:27:12;19.60;99.90
30280;DHT22;17097;50.916;5.344;2023-08-30T13:29:38;19.50;99.90
30280;DHT22;17097;50.916;5.344;2023-08-30T13:32:06;19.50;99.90
30280;DHT22;17097;50.916;5.344;2023-08-30T13:34:32;19.40;99.90
30280;DHT22;17097;50.916;5.344;2023-08-30T13:36:57;19.40;99.90
30280;DHT22;17097;50.916;5.344;2023-08-30T13:39:23;19.40;99.90
30280;DHT22;17097;50.916;5.344;2023-08-30T13:41:51;19.50;99.90
30280;DHT22;17097;50.916;5.344;2023-08-30T13:44:16;19.60;99.90
30280;DHT22;17097;50.916;5.344;2023-08-30T13:46:44;19.90;99.90
30280;DHT22;17097;50.916;5.344;2023-08-30T13:49:13;19.90;99.90
30280;DHT22;17097;50.916;5.344;2023-08-30T13:51:38;19.90;99.90
30280;DHT22;17097;50.916;5.344;2023-08-30T13:54:04;20.10;99.90
30280;DHT22;17097;50.916;5.344;2023-08-30T13:56:32;20.50;99.90
30280;DHT22;17097;50.916;5.344;2023-08-30T13:58:58;20.90;99.90
30280;DHT22;17097;50.916;5.344;2023-08-30T14:01:23;21.10;99.90
30280;DHT22;17097;50.916;5.344;2023-08-30T14:03:49;21.40;99.90
30280;DHT22;17097;50.916;5.344;2023-08-30T14:06:15;21.50;99.90
30280;DHT22;17097;50.916;5.344;2023-08-30T14:08:40;21.80;99.90
30280;DHT22;17097;50.916;5.344;2023-08-30T14:11:06;21.90;99.90
30280;DHT22;17097;50.916;5.344;2023-08-30T14:13:32;21.70;99.90
30280;DHT22;17097;50.916;5.344;2023-08-30T14:16:04;21.50;99.90
30280;DHT22;17097;50.916;5.344;2023-08-30T14:18:30;21.80;99.90
30280;DHT22;17097;50.916;5.344;2023-08-30T14:20:59;21.90;99.90
30280;DHT22;17097;50.916;5.344;2023-08-30T14:23:29;21.70;99.90
30280;DHT22;17097;50.916;5.344;2023-08-30T14:26:05;21.80;99.90
30280;DHT22;17097;50.916;5.344;2023-08-30T14:28:41;22.30;99.90
30280;DHT22;17097;50.916;5.344;2023-08-30T14:31:10;22.60;99.90
30280;DHT22;17097;50.916;5.344;2023-08-30T14:33:36;22.50;99.90
30280;DHT22;17097;50.916;5.344;2023-08-30T14:36:02;22.20;99.90
30280;DHT22;17097;50.916;5.344;2023-08-30T14:38:29;22.10;99.90
30280;DHT22;17097;50.916;5.344;2023-08-30T14:40:58;22.10;99.90
30280;DHT22;17097;50.916;5.344;2023-08-30T14:43:24;22.10;99.90
30280;DHT22;17097;50.916;5.344;2023-08-30T14:46:02;22.30;99.90
30280;DHT22;17097;50.916;5.344;2023-08-30T14:48:31;22.60;99.90
30280;DHT22;17097;50.916;5.344;2023-08-30T14:50:58;22.70;99.90
30280;DHT22;17097;50.916;5.344;2023-08-30T14:53:24;22.60;99.90
30280;DHT22;17097;50.916;5.344;2023-08-30T14:55:52;22.60;99.90
30280;DHT22;17097;50.916;5.344;2023-08-30T14:58:18;22.40;99.90
30280;DHT22;17097;50.916;5.344;2023-08-30T15:00:44;22.40;99.90
30280;DHT22;17097;50.916;5.344;2023-08-30T15:03:10;22.10;99.90
30280;DHT22;17097;50.916;5.344;2023-08-30T15:05:38;21.90;99.90
30280;DHT22;17097;50.916;5.344;2023-08-30T15:08:04;22.00;99.90
30280;DHT22;17097;50.916;5.344;2023-08-30T15:10:32;21.80;99.90
30280;DHT22;17097;50.916;5.344;2023-08-30T15:13:00;21.80;99.90
30280;DHT22;17097;50.916;5.344;2023-08-30T15:15:26;21.30;99.90
30280;DHT22;17097;50.916;5.344;2023-08-30T15:17:52;21.10;99.90
30280;DHT22;17097;50.916;5.344;2023-08-30T15:20:17;20.90;99.90
30280;DHT22;17097;50.916;5.344;2023-08-30T15:22:43;20.80;99.90
30280;DHT22;17097;50.916;5.344;2023-08-30T15:25:09;20.80;99.90
30280;DHT22;17097;50.916;5.344;2023-08-30T15:27:35;21.00;99.90
30280;DHT22;17097;50.916;5.344;2023-08-30T15:30:06;20.70;99.90
30280;DHT22;17097;50.916;5.344;2023-08-30T15:32:32;20.80;99.90
30280;DHT22;17097;50.916;5.344;2023-08-30T15:34:57;20.80;99.90
30280;DHT22;17097;50.916;5.344;2023-08-30T15:37:25;20.90;99.90
30280;DHT22;17097;50.916;5.344;2023-08-30T15:39:59;20.60;99.90